Time;durP1;ratioP1;P1;durP2;ratioP2;P2;SDS_P1;SDS_P2;PMS_P1;PMS_P2;Temp;Humidity;BMP_temperature;BMP_pressure;BME280_temperature;BME280_humidity;BME280_pressure;Samples;Min_cycle;Max_cycle;Signal;HPM_P1;HPM_P2
2024/04/02 00:01:32;;;;;;;18.90;12.57;;;9.20;91.40;;;;;;5035712;28;20161;-82
2024/04/02 00:04:11;;;;;;;16.50;12.37;;;9.20;91.30;;;;;;5033940;28;20246;-82
2024/04/02 00:06:36;;;;;;;19.93;13.13;;;9.10;91.10;;;;;;5034379;28;20165;-82
2024/04/02 00:09:02;;;;;;;15.03;12.60;;;9.10;91.30;;;;;;5034925;28;20256;-83
2024/04/02 00:11:27;;;;;;;16.23;13.50;;;9.10;91.30;;;;;;5035458;28;20232;-82
2024/04/02 00:13:53;;;;;;;21.07;12.43;;;9.00;91.30;;;;;;5033906;28;20231;-83
2024/04/02 00:16:18;;;;;;;14.53;12.73;;;8.90;91.40;;;;;;5034763;28;20263;-82
2024/04/02 00:18:44;;;;;;;8.73;7.93;;;8.90;91.30;;;;;;5033649;28;20177;-82
2024/04/02 00:21:09;;;;;;;14.23;9.10;;;8.90;91.20;;;;;;5035613;28;20260;-81
2024/04/02 00:23:35;;;;;;;17.03;9.63;;;8.80;91.40;;;;;;5033785;28;20208;-82
2024/04/02 00:26:01;;;;;;;12.33;8.17;;;8.90;91.20;;;;;;5034893;28;20260;-84
2024/04/02 00:28:27;;;;;;;10.30;8.50;;;8.90;91.20;;;;;;5035176;28;20549;-85
2024/04/02 00:30:53;;;;;;;15.37;9.40;;;8.80;91.10;;;;;;5033939;28;20177;-84
2024/04/02 00:33:18;;;;;;;10.77;8.70;;;8.80;91.10;;;;;;5034820;28;20199;-82
2024/04/02 00:35:44;;;;;;;11.57;8.40;;;8.80;91.00;;;;;;5033245;28;20652;-82
2024/04/02 00:38:09;;;;;;;13.10;9.27;;;8.80;90.90;;;;;;5033227;28;20238;-84
2024/04/02 00:40:40;;;;;;;12.27;7.93;;;8.80;90.70;;;;;;5037243;28;20199;-83
2024/04/02 00:43:06;;;;;;;11.90;8.87;;;8.80;90.60;;;;;;5038448;28;20566;-83
2024/04/02 00:45:32;;;;;;;16.77;9.03;;;8.80;90.60;;;;;;5037154;28;20200;-83
2024/04/02 00:47:57;;;;;;;12.63;9.23;;;8.80;90.60;;;;;;5039313;28;20173;-83
2024/04/02 00:50:23;;;;;;;11.50;8.30;;;8.80;90.60;;;;;;5038111;28;20180;-83
2024/04/02 00:52:49;;;;;;;11.57;8.77;;;8.80;90.80;;;;;;5039179;28;20290;-84
2024/04/02 00:55:15;;;;;;;12.03;8.33;;;8.70;91.00;;;;;;5037467;28;20318;-84
2024/04/02 00:57:41;;;;;;;17.10;8.33;;;8.70;91.00;;;;;;5037331;28;20219;-83
2024/04/02 01:00:07;;;;;;;15.63;8.77;;;8.70;90.90;;;;;;5038741;28;20215;-83
2024/04/02 01:02:32;;;;;;;14.10;7.80;;;8.70;90.90;;;;;;5037724;28;20264;-83
2024/04/02 01:04:59;;;;;;;16.03;8.63;;;8.60;91.00;;;;;;5037659;28;20203;-83
2024/04/02 01:07:26;;;;;;;12.63;8.53;;;8.60;91.10;;;;;;5038080;28;20608;-83
2024/04/02 01:09:52;;;;;;;13.60;8.50;;;8.60;90.90;;;;;;5037128;28;20235;-83
2024/04/02 01:12:17;;;;;;;11.97;8.20;;;8.60;90.90;;;;;;5038489;28;20181;-84
2024/04/02 01:14:43;;;;;;;15.40;9.17;;;8.60;90.90;;;;;;5037065;28;20185;-83
2024/04/02 01:17:09;;;;;;;14.53;9.43;;;8.50;91.00;;;;;;5038027;28;20213;-83
2024/04/02 01:19:34;;;;;;;12.20;10.00;;;8.60;91.20;;;;;;5036695;28;20231;-83
2024/04/02 01:22:00;;;;;;;13.67;8.80;;;8.50;91.00;;;;;;5036588;28;20698;-83
2024/04/02 01:24:29;;;;;;;12.83;8.93;;;8.50;91.10;;;;;;5037813;28;20200;-83
2024/04/02 01:26:55;;;;;;;22.33;9.23;;;8.50;91.00;;;;;;5036452;28;20180;-83
2024/04/02 01:29:21;;;;;;;14.97;8.70;;;8.50;91.10;;;;;;5036849;28;20307;-83
2024/04/02 01:31:47;;;;;;;21.60;10.87;;;8.50;91.10;;;;;;5036504;28;20181;-83
2024/04/02 01:34:14;;;;;;;12.43;8.70;;;8.50;91.20;;;;;;5036693;28;20316;-83
2024/04/02 01:36:40;;;;;;;17.37;9.57;;;8.50;90.90;;;;;;5037846;28;20181;-84
2024/04/02 01:39:07;;;;;;;15.70;13.80;;;8.50;90.90;;;;;;5036002;28;20201;-83
2024/04/02 01:41:33;;;;;;;18.13;13.67;;;8.50;90.90;;;;;;5038135;28;20173;-83
2024/04/02 01:43:59;;;;;;;15.67;13.07;;;8.50;90.70;;;;;;5038073;28;20185;-86
2024/04/02 01:46:24;;;;;;;19.23;14.00;;;8.50;90.70;;;;;;5037167;28;20185;-84
2024/04/02 01:48:50;;;;;;;16.07;14.57;;;8.50;90.80;;;;;;5037777;28;20203;-83
2024/04/02 01:51:15;;;;;;;14.93;13.37;;;8.50;90.70;;;;;;5034989;28;20212;-83
2024/04/02 01:53:42;;;;;;;19.33;13.53;;;8.50;90.80;;;;;;5037355;28;20200;-84
2024/04/02 01:56:08;;;;;;;15.10;12.97;;;8.40;90.80;;;;;;5036535;28;20592;-84
2024/04/02 01:58:33;;;;;;;14.83;13.07;;;8.40;90.80;;;;;;5037702;28;20259;-84
2024/04/02 02:00:59;;;;;;;15.90;13.97;;;8.40;90.70;;;;;;5036360;28;20205;-82
2024/04/02 02:03:24;;;;;;;21.97;13.17;;;8.40;90.60;;;;;;5037387;28;20199;-83
2024/04/02 02:05:50;;;;;;;15.80;13.63;;;8.40;90.50;;;;;;5037156;28;20187;-83
2024/04/02 02:08:15;;;;;;;14.53;13.13;;;8.40;90.50;;;;;;5037425;28;20173;-82
2024/04/02 02:10:41;;;;;;;14.20;12.90;;;8.40;90.30;;;;;;5037602;28;20192;-83
2024/04/02 02:13:08;;;;;;;15.10;13.57;;;8.40;90.40;;;;;;5036221;28;20243;-83
2024/04/02 02:15:34;;;;;;;13.50;12.23;;;8.40;90.30;;;;;;5035672;28;20188;-83
2024/04/02 02:18:00;;;;;;;15.67;12.77;;;8.40;90.40;;;;;;5035789;28;20539;-83
2024/04/02 02:20:26;;;;;;;16.07;13.27;;;8.40;90.30;;;;;;5036718;28;20258;-83
2024/04/02 02:22:51;;;;;;;14.93;13.20;;;8.30;90.40;;;;;;5035291;28;20618;-83
2024/04/02 02:25:17;;;;;;;15.03;13.37;;;8.30;90.60;;;;;;5037082;28;20191;-83
2024/04/02 02:27:43;;;;;;;13.87;11.97;;;8.40;90.40;;;;;;5036933;28;20188;-83
2024/04/02 02:30:08;;;;;;;17.20;13.40;;;8.40;90.40;;;;;;5035345;28;20180;-85
2024/04/02 02:32:34;;;;;;;18.27;13.23;;;8.30;90.60;;;;;;5036862;28;20284;-83
2024/04/02 02:35:01;;;;;;;17.40;13.37;;;8.30;90.40;;;;;;5035597;28;20572;-83
2024/04/02 02:37:27;;;;;;;15.13;13.40;;;8.30;90.40;;;;;;5035535;28;20590;-83
2024/04/02 02:39:53;;;;;;;14.53;13.03;;;8.30;90.30;;;;;;5035323;28;20254;-83
2024/04/02 02:42:19;;;;;;;14.57;13.07;;;8.30;90.20;;;;;;5036560;28;20169;-83
2024/04/02 02:44:45;;;;;;;18.43;14.70;;;8.30;90.40;;;;;;5035475;28;20181;-83
2024/04/02 02:47:10;;;;;;;18.23;14.90;;;8.30;90.50;;;;;;5036217;28;20259;-83
2024/04/02 02:49:36;;;;;;;15.53;14.10;;;8.30;90.60;;;;;;5035260;28;20215;-83
2024/04/02 02:52:01;;;;;;;14.63;13.43;;;8.30;90.70;;;;;;5035180;28;20173;-83
2024/04/02 02:54:27;;;;;;;15.83;14.40;;;8.30;90.80;;;;;;5034800;28;20710;-83
2024/04/02 02:56:53;;;;;;;18.80;14.53;;;8.30;90.90;;;;;;5036582;28;20219;-83
2024/04/02 02:59:18;;;;;;;14.77;13.27;;;8.30;90.90;;;;;;5036223;28;20204;-83
2024/04/02 03:01:44;;;;;;;13.77;10.73;;;8.30;90.80;;;;;;5036413;28;20650;-83
2024/04/02 03:04:09;;;;;;;11.33;10.20;;;8.30;90.80;;;;;;5035867;28;20195;-83
2024/04/02 03:06:35;;;;;;;9.80;8.60;;;8.30;90.70;;;;;;5034856;28;20190;-83
2024/04/02 03:09:00;;;;;;;13.80;9.33;;;8.30;90.90;;;;;;5035885;28;20177;-83
2024/04/02 03:11:26;;;;;;;13.20;9.77;;;8.30;90.80;;;;;;5035040;28;20703;-83
2024/04/02 03:13:51;;;;;;;11.17;9.87;;;8.20;90.80;;;;;;5036364;28;20219;-83
2024/04/02 03:16:20;;;;;;;8.70;8.00;;;8.30;90.90;;;;;;5034669;28;20200;-83
2024/04/02 03:18:46;;;;;;;14.97;10.70;;;8.20;91.00;;;;;;5036502;28;20169;-83
2024/04/02 03:21:15;;;;;;;15.50;9.67;;;8.20;91.00;;;;;;5034279;28;20200;-83
2024/04/02 03:23:42;;;;;;;11.43;9.57;;;8.20;91.10;;;;;;5036198;28;20262;-84
2024/04/02 03:26:08;;;;;;;12.67;9.87;;;8.20;91.10;;;;;;5034706;28;20550;-83
2024/04/02 03:28:33;;;;;;;13.87;10.10;;;8.20;91.10;;;;;;5035196;28;20180;-84
2024/04/02 03:31:03;;;;;;;12.10;10.83;;;8.30;91.10;;;;;;5035836;28;20176;-83
2024/04/02 03:33:29;;;;;;;13.53;10.23;;;8.30;91.10;;;;;;5035251;28;20199;-83
2024/04/02 03:36:01;;;;;;;15.27;10.50;;;8.30;91.10;;;;;;5036036;28;20524;-83
2024/04/02 03:38:27;;;;;;;11.37;9.90;;;8.30;91.10;;;;;;5034372;28;20169;-83
2024/04/02 03:40:52;;;;;;;15.23;11.43;;;8.30;91.10;;;;;;5034379;28;20335;-84
2024/04/02 03:43:18;;;;;;;15.23;11.03;;;8.30;91.20;;;;;;5035482;28;20318;-83
2024/04/02 03:45:44;;;;;;;14.00;11.33;;;8.30;91.20;;;;;;5036222;28;20169;-83
2024/04/02 03:48:10;;;;;;;13.83;10.17;;;8.30;91.30;;;;;;5035582;28;20184;-83
2024/04/02 03:50:36;;;;;;;14.70;11.73;;;8.30;91.30;;;;;;5035496;28;20214;-83
2024/04/02 03:53:02;;;;;;;17.27;11.27;;;8.30;91.20;;;;;;5037483;28;20194;-83
2024/04/02 03:55:35;;;;;;;17.40;12.37;;;8.30;91.30;;;;;;5035329;28;20207;-83
2024/04/02 03:58:02;;;;;;;16.13;11.87;;;8.30;91.30;;;;;;5035780;28;20192;-83
2024/04/02 04:00:27;;;;;;;14.17;12.77;;;8.30;91.30;;;;;;5035421;28;20264;-83
2024/04/02 04:02:55;;;;;;;18.97;11.67;;;8.30;91.30;;;;;;5036409;28;20192;-84
2024/04/02 04:05:20;;;;;;;16.10;12.10;;;8.30;91.50;;;;;;5037417;28;20683;-83
2024/04/02 04:07:46;;;;;;;21.40;12.30;;;8.30;91.60;;;;;;5035360;28;20177;-83
2024/04/02 04:10:12;;;;;;;19.77;13.03;;;8.30;91.60;;;;;;5036551;28;20255;-84
2024/04/02 04:12:37;;;;;;;21.33;15.80;;;8.30;91.70;;;;;;5036732;28;20668;-83
2024/04/02 04:15:03;;;;;;;22.30;16.33;;;8.30;91.70;;;;;;5036030;28;20180;-84
2024/04/02 04:17:29;;;;;;;21.80;16.17;;;8.30;91.70;;;;;;5036981;28;20641;-85
2024/04/02 04:19:55;;;;;;;17.30;15.47;;;8.30;91.60;;;;;;5034947;28;20208;-84
2024/04/02 04:22:20;;;;;;;24.87;15.90;;;8.30;91.70;;;;;;5036800;28;20230;-84
2024/04/02 04:24:56;;;;;;;18.20;16.40;;;8.20;91.70;;;;;;5035729;28;20177;-82
2024/04/02 04:27:23;;;;;;;23.67;16.10;;;8.20;91.90;;;;;;5035287;28;20168;-84
2024/04/02 04:29:48;;;;;;;20.73;15.37;;;8.20;91.90;;;;;;5036690;28;20172;-85
2024/04/02 04:32:15;;;;;;;17.03;14.90;;;8.10;92.00;;;;;;5035245;28;20226;-83
2024/04/02 04:34:40;;;;;;;18.57;15.00;;;8.20;92.00;;;;;;5034874;28;20185;-84
2024/04/02 04:37:06;;;;;;;19.67;15.23;;;8.20;92.00;;;;;;5036499;28;20179;-83
2024/04/02 04:39:31;;;;;;;18.20;15.17;;;8.20;92.00;;;;;;5037377;28;20205;-84
2024/04/02 04:41:57;;;;;;;19.37;15.63;;;8.20;92.10;;;;;;5036979;28;20214;-84
2024/04/02 04:44:22;;;;;;;17.13;15.53;;;8.20;92.10;;;;;;5034983;28;20199;-84
2024/04/02 04:46:48;;;;;;;16.03;14.07;;;8.30;92.00;;;;;;5035644;28;20176;-84
2024/04/02 04:49:13;;;;;;;17.83;14.90;;;8.30;92.00;;;;;;5037159;28;20187;-83
2024/04/02 04:51:39;;;;;;;16.80;14.50;;;8.30;92.00;;;;;;5036782;28;20177;-83
2024/04/02 04:54:04;;;;;;;22.40;16.20;;;8.30;92.00;;;;;;5036640;28;20275;-83
2024/04/02 04:56:30;;;;;;;18.97;15.57;;;8.30;92.00;;;;;;5036740;28;20180;-83
2024/04/02 04:58:55;;;;;;;20.90;14.83;;;8.30;92.00;;;;;;5036531;28;20172;-83
2024/04/02 05:01:21;;;;;;;18.93;14.97;;;8.30;91.90;;;;;;5034605;28;20211;-83
2024/04/02 05:03:46;;;;;;;17.70;15.43;;;8.40;91.90;;;;;;5035116;28;20192;-84
2024/04/02 05:06:12;;;;;;;18.33;14.67;;;8.40;91.80;;;;;;5035060;28;20169;-83
2024/04/02 05:08:37;;;;;;;21.30;15.77;;;8.30;91.80;;;;;;5036365;28;20172;-83
2024/04/02 05:11:05;;;;;;;16.73;14.30;;;8.40;91.70;;;;;;5034831;28;20180;-84
2024/04/02 05:13:31;;;;;;;15.03;12.17;;;8.40;91.70;;;;;;5034597;28;20209;-83
2024/04/02 05:15:57;;;;;;;16.50;14.87;;;8.40;91.60;;;;;;5033883;28;20221;-84
2024/04/02 05:18:23;;;;;;;17.07;15.40;;;8.40;91.50;;;;;;5034734;28;20176;-84
2024/04/02 05:20:49;;;;;;;21.30;16.37;;;8.40;91.40;;;;;;5034542;28;20192;-83
2024/04/02 05:23:14;;;;;;;19.23;15.37;;;8.40;91.60;;;;;;5036358;28;20236;-83
2024/04/02 05:25:41;;;;;;;15.20;13.70;;;8.50;91.70;;;;;;5038527;28;20680;-83
2024/04/02 05:28:07;;;;;;;17.40;15.60;;;8.40;91.70;;;;;;5038663;28;20238;-84
2024/04/02 05:30:34;;;;;;;17.07;14.50;;;8.40;91.70;;;;;;5040289;28;20183;-84
2024/04/02 05:33:00;;;;;;;16.23;14.53;;;8.40;91.70;;;;;;5039912;28;20664;-85
2024/04/02 05:35:26;;;;;;;19.93;17.77;;;8.50;91.70;;;;;;5040604;28;20187;-83
2024/04/02 05:37:52;;;;;;;25.03;17.53;;;8.50;91.60;;;;;;5038637;28;20563;-86
2024/04/02 05:40:18;;;;;;;20.13;16.37;;;8.50;91.60;;;;;;5038364;28;20207;-84
2024/04/02 05:42:45;;;;;;;18.27;15.10;;;8.50;91.40;;;;;;5038693;28;20342;-83
2024/04/02 05:45:12;;;;;;;27.03;17.17;;;8.50;91.40;;;;;;5038127;28;20196;-83
2024/04/02 05:47:37;;;;;;;17.67;15.87;;;8.50;91.30;;;;;;5040013;28;20181;-83
2024/04/02 05:50:04;;;;;;;19.40;17.33;;;8.50;91.20;;;;;;5038092;28;20180;-85
2024/04/02 05:52:29;;;;;;;21.07;16.60;;;8.50;91.40;;;;;;5040052;28;20185;-83
2024/04/02 05:54:55;;;;;;;25.90;17.43;;;8.50;91.50;;;;;;5038367;28;20187;-83
2024/04/02 05:57:21;;;;;;;22.47;20.07;;;8.50;91.50;;;;;;5039715;28;20533;-83
2024/04/02 05:59:47;;;;;;;25.63;18.57;;;8.60;91.40;;;;;;5037972;28;20222;-83
2024/04/02 06:02:13;;;;;;;26.63;19.83;;;8.60;91.40;;;;;;5040174;28;20188;-83
2024/04/02 06:04:38;;;;;;;21.10;16.33;;;8.60;91.30;;;;;;5037917;28;20173;-84
2024/04/02 06:07:04;;;;;;;18.70;13.87;;;8.60;91.30;;;;;;5039824;28;20545;-86
2024/04/02 06:09:30;;;;;;;24.47;17.03;;;8.60;91.40;;;;;;5037585;28;20196;-84
2024/04/02 06:11:55;;;;;;;19.93;15.70;;;8.60;91.30;;;;;;5036850;28;20177;-85
2024/04/02 06:14:21;;;;;;;24.10;16.53;;;8.70;91.20;;;;;;5037411;28;20251;-85
2024/04/02 06:16:46;;;;;;;21.13;16.30;;;8.70;91.30;;;;;;5036078;28;20518;-84
2024/04/02 06:19:12;;;;;;;18.87;13.77;;;8.70;91.40;;;;;;5037968;28;20207;-84
2024/04/02 06:21:37;;;;;;;19.57;15.90;;;8.70;91.30;;;;;;5038213;28;20275;-83
2024/04/02 06:24:03;;;;;;;20.83;14.97;;;8.70;91.50;;;;;;5037342;28;20217;-83
2024/04/02 06:26:28;;;;;;;20.67;15.27;;;8.70;91.40;;;;;;5038799;28;20168;-85
2024/04/02 06:28:54;;;;;;;19.27;16.13;;;8.70;91.50;;;;;;5038814;28;20184;-83
2024/04/02 06:31:19;;;;;;;23.10;17.57;;;8.70;91.40;;;;;;5039109;28;20267;-83
2024/04/02 06:33:45;;;;;;;24.43;17.13;;;8.80;91.30;;;;;;5037656;28;20265;-83
2024/04/02 06:36:10;;;;;;;25.93;17.50;;;8.70;91.30;;;;;;5038102;28;20709;-82
2024/04/02 06:38:36;;;;;;;22.87;16.63;;;8.80;91.20;;;;;;5038590;28;20177;-83
2024/04/02 06:41:01;;;;;;;20.17;15.97;;;8.80;91.30;;;;;;5037097;28;20215;-83
2024/04/02 06:43:27;;;;;;;25.37;17.90;;;8.80;91.10;;;;;;5039172;28;20560;-85
2024/04/02 06:45:54;;;;;;;22.17;15.40;;;8.90;91.10;;;;;;5039115;28;20207;-82
2024/04/02 06:48:20;;;;;;;21.23;17.00;;;8.90;91.10;;;;;;5037817;28;20641;-83
2024/04/02 06:50:46;;;;;;;19.23;15.67;;;8.90;91.10;;;;;;5036720;28;20180;-82
2024/04/02 06:53:11;;;;;;;18.43;16.33;;;8.90;90.90;;;;;;5036209;28;20245;-83
2024/04/02 06:55:37;;;;;;;25.50;16.20;;;9.00;90.80;;;;;;5036145;28;20191;-88
2024/04/02 06:58:03;;;;;;;24.13;17.43;;;8.90;90.90;;;;;;5037856;28;20222;-83
2024/04/02 07:00:29;;;;;;;19.83;14.00;;;9.00;91.10;;;;;;5037732;28;20193;-84
2024/04/02 07:02:55;;;;;;;24.00;16.60;;;9.00;91.00;;;;;;5039049;28;20198;-83
2024/04/02 07:05:20;;;;;;;21.23;17.73;;;9.00;90.80;;;;;;5036713;28;20184;-86
2024/04/02 07:07:46;;;;;;;18.57;14.87;;;9.10;90.90;;;;;;5035835;28;20188;-85
2024/04/02 07:10:11;;;;;;;24.80;16.50;;;9.10;90.90;;;;;;5034540;28;20267;-86
2024/04/02 07:12:36;;;;;;;17.90;15.47;;;9.10;90.60;;;;;;5035807;28;20201;-84
2024/04/02 07:15:02;;;;;;;19.63;15.70;;;9.20;90.70;;;;;;5033937;28;20181;-84
2024/04/02 07:17:28;;;;;;;19.03;16.90;;;9.20;90.80;;;;;;5037956;28;20550;-83
2024/04/02 07:19:53;;;;;;;21.67;16.23;;;9.20;90.60;;;;;;5037244;28;20201;-83
2024/04/02 07:22:19;;;;;;;24.27;15.90;;;9.20;90.70;;;;;;5037915;28;20650;-84
2024/04/02 07:24:44;;;;;;;25.27;17.23;;;9.20;90.60;;;;;;5039034;28;20195;-83
2024/04/02 07:27:13;;;;;;;24.43;15.70;;;9.20;90.50;;;;;;5038706;28;20291;-84
2024/04/02 07:29:38;;;;;;;15.80;14.07;;;9.20;90.50;;;;;;5037216;28;20553;-82
2024/04/02 07:32:04;;;;;;;17.83;15.63;;;9.20;90.30;;;;;;5035663;28;20271;-82
2024/04/02 07:34:30;;;;;;;18.47;15.13;;;9.20;90.40;;;;;;5035638;28;20207;-84
2024/04/02 07:36:56;;;;;;;20.10;15.13;;;9.20;90.40;;;;;;5037923;28;20235;-83
2024/04/02 07:39:21;;;;;;;16.33;14.23;;;9.30;90.30;;;;;;5036164;28;20623;-84
2024/04/02 07:41:47;;;;;;;16.43;14.47;;;9.30;90.50;;;;;;5036673;28;20230;-85
2024/04/02 07:44:12;;;;;;;19.90;15.80;;;9.20;89.90;;;;;;5037533;28;20242;-87
2024/04/02 07:46:38;;;;;;;17.70;15.13;;;9.30;89.80;;;;;;5036220;28;20567;-84
2024/04/02 07:49:03;;;;;;;21.50;16.67;;;9.20;89.90;;;;;;5036345;28;20173;-86
2024/04/02 07:51:29;;;;;;;20.67;14.97;;;9.30;90.00;;;;;;5033641;28;20207;-87
2024/04/02 07:53:54;;;;;;;18.43;15.43;;;9.30;89.80;;;;;;5032845;28;20581;-86
2024/04/02 07:56:20;;;;;;;17.00;14.57;;;9.30;89.90;;;;;;5033114;28;20176;-87
2024/04/02 07:58:45;;;;;;;22.23;16.33;;;9.30;89.70;;;;;;5032813;28;20180;-87
2024/04/02 08:01:11;;;;;;;17.97;14.60;;;9.40;89.90;;;;;;5033967;28;20235;-86
2024/04/02 08:03:36;;;;;;;19.27;14.63;;;9.40;90.00;;;;;;5032843;28;20192;-86
2024/04/02 08:06:02;;;;;;;23.07;17.97;;;9.40;89.70;;;;;;5034150;28;20176;-86
2024/04/02 08:09:12;;;;;;;21.60;19.40;;;9.50;89.80;;;;;;5034477;28;20195;-85
2024/04/02 08:11:52;;;;;;;18.07;16.23;;;9.50;89.50;;;;;;5000193;28;20216;-87
2024/04/02 08:15:07;;;;;;;20.37;18.13;;;9.50;89.70;;;;;;5032281;28;20275;-88
2024/04/02 08:25:42;;;;;;;;;;;;;;;;;;;;;
2024/04/02 08:28:56;;;;;;;21.07;17.97;;;9.50;89.30;;;;;;5031893;28;20165;-86
2024/04/02 08:31:30;;;;;;;23.23;18.23;;;9.50;89.20;;;;;;4993384;28;20261;-86
2024/04/02 08:34:21;;;;;;;21.03;14.90;;;9.40;89.20;;;;;;5034193;28;20207;-86
2024/04/02 08:37:03;;;;;;;21.27;17.07;;;9.50;89.40;;;;;;5027713;28;20608;-87
2024/04/02 08:39:49;;;;;;;19.10;16.90;;;9.50;89.30;;;;;;5032725;28;20672;-86
2024/04/02 08:44:42;;;;;;;19.27;17.43;;;9.70;89.10;;;;;;5038063;23;20228;-88
2024/04/02 08:47:08;;;;;;;18.13;16.50;;;9.80;88.60;;;;;;5034487;28;20173;-87
2024/04/02 08:49:33;;;;;;;20.63;18.03;;;9.80;88.30;;;;;;5032972;28;20234;-87
2024/04/02 08:52:00;;;;;;;22.40;17.73;;;9.80;88.20;;;;;;5049658;28;20180;-87
2024/04/02 08:54:28;;;;;;;19.53;17.63;;;9.90;88.10;;;;;;5050257;28;20211;-87
2024/04/02 08:56:55;;;;;;;18.73;16.90;;;10.00;88.10;;;;;;5049211;28;20188;-87
2024/04/02 08:59:25;;;;;;;22.37;17.83;;;10.10;87.90;;;;;;5049178;28;20587;-87
2024/04/02 09:01:50;;;;;;;18.57;16.70;;;10.20;88.10;;;;;;5053581;28;20227;-87
2024/04/02 09:04:18;;;;;;;19.07;17.27;;;10.10;87.40;;;;;;5052900;28;20204;-88
2024/04/02 09:06:44;;;;;;;20.17;18.20;;;10.20;87.30;;;;;;5038076;28;20169;-88
2024/04/02 09:09:25;;;;;;;19.60;17.70;;;10.20;87.20;;;;;;5037976;28;20180;-88
2024/04/02 09:12:03;;;;;;;19.43;17.50;;;10.30;87.00;;;;;;5053001;28;20177;-88
2024/04/02 09:14:33;;;;;;;15.93;12.47;;;10.30;87.00;;;;;;5037165;28;20621;-88
2024/04/02 09:16:59;;;;;;;13.47;12.10;;;10.40;87.50;;;;;;5052726;28;20165;-89
2024/04/02 09:19:30;;;;;;;13.33;12.13;;;10.40;87.40;;;;;;5052813;28;20261;-88
2024/04/02 09:48:40;;;;;;;;;;;;;;;;;;;;;
2024/04/02 09:51:50;;;;;;;13.30;12.00;;;10.90;85.90;;;;;;4997840;28;20645;-89
2024/04/02 09:54:30;;;;;;;14.23;12.87;;;10.80;85.80;;;;;;4996164;28;20205;-88
2024/04/02 09:57:17;;;;;;;;;;;;;;;;;;;;;
2024/04/02 09:59:43;;;;;;;13.73;12.10;;;10.80;86.40;;;;;;4995394;28;20221;-84
2024/04/02 10:02:15;;;;;;;18.10;11.97;;;10.80;86.70;;;;;;5000978;28;20658;-83
2024/04/02 10:04:41;;;;;;;14.13;12.80;;;10.90;86.50;;;;;;4995127;28;20222;-85
2024/04/02 10:07:19;;;;;;;14.30;11.83;;;11.00;86.60;;;;;;4996192;28;20170;-83
2024/04/02 10:09:45;;;;;;;13.90;12.50;;;11.00;86.00;;;;;;4996300;28;20178;-84
2024/04/02 10:12:11;;;;;;;15.63;11.97;;;11.10;86.00;;;;;;4995548;28;20181;-83
2024/04/02 10:14:37;;;;;;;13.50;12.30;;;11.30;85.80;;;;;;4995009;28;20611;-83
2024/04/02 10:17:05;;;;;;;16.37;13.83;;;11.50;85.50;;;;;;4996252;28;20249;-83
2024/04/02 10:19:32;;;;;;;15.20;13.43;;;11.40;85.20;;;;;;4996353;28;20198;-84
2024/04/02 10:21:58;;;;;;;13.60;12.17;;;11.60;84.70;;;;;;4994864;28;20209;-83
2024/04/02 10:24:26;;;;;;;12.30;11.17;;;11.70;84.20;;;;;;4996194;28;20586;-83
2024/04/02 10:26:56;;;;;;;15.30;13.77;;;11.60;83.60;;;;;;4996035;28;20193;-82
2024/04/02 10:29:33;;;;;;;14.67;13.47;;;11.60;83.60;;;;;;4996030;28;20196;-83
2024/04/02 10:32:00;;;;;;;15.67;12.77;;;11.80;83.60;;;;;;4994670;28;20180;-83
2024/04/02 10:34:26;;;;;;;15.27;13.73;;;11.70;82.90;;;;;;4996188;28;20230;-83
2024/04/02 10:36:52;;;;;;;17.43;13.40;;;11.60;82.80;;;;;;4995855;28;20256;-83
2024/04/02 10:39:18;;;;;;;13.77;11.97;;;11.80;83.10;;;;;;4994264;28;20174;-83
2024/04/02 10:41:45;;;;;;;13.53;12.37;;;12.00;82.30;;;;;;4994460;28;20174;-84
2024/04/02 10:44:11;;;;;;;20.87;19.07;;;12.10;83.10;;;;;;4995875;28;20197;-81
2024/04/02 10:46:39;;;;;;;21.00;19.50;;;12.10;82.50;;;;;;4995624;28;20197;-82
2024/04/02 10:49:05;;;;;;;23.30;21.60;;;12.20;82.00;;;;;;4995751;28;20182;-83
2024/04/02 10:51:32;;;;;;;21.13;19.50;;;11.80;80.80;;;;;;4994407;28;20537;-83
2024/04/02 10:53:58;;;;;;;22.07;20.43;;;11.90;81.70;;;;;;4995380;28;20186;-82
2024/04/02 10:56:25;;;;;;;18.40;16.90;;;11.90;80.60;;;;;;4995506;28;20186;-83
2024/04/02 10:58:52;;;;;;;21.23;19.33;;;12.10;82.10;;;;;;4995678;28;20171;-83
2024/04/02 11:01:18;;;;;;;21.07;19.53;;;12.00;81.60;;;;;;4995250;28;20201;-83
2024/04/02 11:03:45;;;;;;;21.77;20.03;;;12.10;81.20;;;;;;4994069;28;20678;-83
2024/04/02 11:06:11;;;;;;;21.73;19.77;;;12.00;80.70;;;;;;4994486;28;20558;-82
2024/04/02 11:08:38;;;;;;;22.10;20.03;;;11.90;81.80;;;;;;4994308;28;20181;-84
2024/04/02 11:11:04;;;;;;;20.97;19.30;;;11.70;80.90;;;;;;4994124;28;20190;-83
2024/04/02 11:13:30;;;;;;;20.50;18.90;;;11.70;80.90;;;;;;4995143;28;20276;-84
2024/04/02 11:15:57;;;;;;;20.57;18.97;;;12.10;81.20;;;;;;4995335;28;20216;-83
2024/04/02 11:18:23;;;;;;;20.90;19.40;;;12.30;80.40;;;;;;4995073;28;20177;-84
2024/04/02 11:20:59;;;;;;;22.43;20.50;;;12.60;78.90;;;;;;4993751;28;20206;-83
2024/04/02 11:26:15;;;;;;;22.27;20.70;;;12.30;77.60;;;;;;4995379;28;20657;-84
2024/04/02 11:28:44;;;;;;;14.57;13.10;;;12.30;79.30;;;;;;4993929;28;20638;-84
2024/04/02 11:31:14;;;;;;;13.43;12.47;;;12.10;79.80;;;;;;4993461;28;20178;-83
2024/04/02 11:33:41;;;;;;;14.50;13.23;;;12.10;80.00;;;;;;4993503;28;20208;-83
2024/04/02 11:36:07;;;;;;;13.93;12.90;;;12.20;79.80;;;;;;4993384;28;20174;-86
2024/04/02 11:38:36;;;;;;;13.43;12.33;;;12.30;79.80;;;;;;4993508;28;20215;-85
2024/04/02 11:41:05;;;;;;;14.20;13.00;;;12.30;80.20;;;;;;4993448;28;20206;-86
2024/04/02 11:43:31;;;;;;;14.20;12.97;;;12.30;79.40;;;;;;4993369;28;20628;-84
2024/04/02 11:45:57;;;;;;;15.37;13.73;;;12.30;80.50;;;;;;4993254;28;20224;-82
2024/04/02 11:48:22;;;;;;;14.03;12.37;;;12.30;80.50;;;;;;4995224;28;20162;-83
2024/04/02 11:50:48;;;;;;;14.43;13.17;;;12.30;81.50;;;;;;4994388;28;20177;-83
2024/04/02 11:53:13;;;;;;;13.97;12.07;;;12.20;80.90;;;;;;4994365;28;20189;-83
2024/04/02 11:55:41;;;;;;;14.60;13.13;;;12.20;81.90;;;;;;4993138;28;20205;-83
2024/04/02 12:00:52;;;;;;;13.90;12.60;;;12.00;80.80;;;;;;4994397;28;20577;-84
2024/04/02 12:03:18;;;;;;;12.83;11.80;;;12.00;80.80;;;;;;4993063;28;20194;-86
2024/04/02 12:05:43;;;;;;;12.27;11.27;;;11.80;81.10;;;;;;4994592;28;20186;-83
2024/04/02 12:08:09;;;;;;;12.43;11.43;;;11.70;80.90;;;;;;4994743;28;20174;-83
2024/04/02 12:10:34;;;;;;;13.10;12.00;;;11.50;81.90;;;;;;4992552;28;20440;-82
2024/04/02 12:13:00;;;;;;;13.03;11.83;;;11.40;82.40;;;;;;4994520;28;20276;-89
2024/04/02 12:15:25;;;;;;;11.70;10.60;;;11.40;83.60;;;;;;4994507;28;20261;-83
2024/04/02 12:17:51;;;;;;;10.40;9.70;;;11.50;84.10;;;;;;4994299;28;20220;-84
2024/04/02 12:20:17;;;;;;;11.60;10.53;;;11.60;84.80;;;;;;4994050;28;20260;-83
2024/04/02 12:22:42;;;;;;;10.60;9.60;;;11.80;85.20;;;;;;4992807;28;20248;-83
2024/04/02 12:25:07;;;;;;;11.63;10.67;;;12.00;85.50;;;;;;4993005;28;20580;-83
2024/04/02 12:27:33;;;;;;;10.87;9.90;;;11.80;84.50;;;;;;4994023;28;20213;-83
2024/04/02 12:29:59;;;;;;;12.30;11.07;;;11.80;85.60;;;;;;4992823;28;20180;-83
2024/04/02 12:32:27;;;;;;;12.03;10.93;;;11.70;84.40;;;;;;4994224;28;20550;-83
2024/04/02 12:34:53;;;;;;;12.03;10.83;;;11.70;84.60;;;;;;4992333;28;20181;-83
2024/04/02 12:37:18;;;;;;;10.97;10.00;;;11.80;84.90;;;;;;4992987;28;20696;-82
2024/04/02 12:39:46;;;;;;;11.97;10.80;;;11.70;84.50;;;;;;4993816;28;20209;-83
2024/04/02 12:42:12;;;;;;;12.10;10.97;;;11.60;84.70;;;;;;4994263;28;20638;-83
2024/04/02 12:44:41;;;;;;;10.53;9.63;;;11.30;84.80;;;;;;4993104;28;20185;-84
2024/04/02 12:47:07;;;;;;;13.43;10.57;;;11.40;85.40;;;;;;4992535;28;20221;-83
2024/04/02 12:49:33;;;;;;;9.83;9.13;;;11.30;86.30;;;;;;4993996;28;20261;-83
2024/04/02 12:51:59;;;;;;;11.00;9.93;;;11.50;87.20;;;;;;4992618;28;20273;-82
2024/04/02 12:54:24;;;;;;;11.23;9.50;;;11.80;87.50;;;;;;4993785;28;20264;-83
2024/04/02 12:56:50;;;;;;;11.53;10.20;;;11.90;86.60;;;;;;4993848;28;20174;-83
2024/04/02 12:59:15;;;;;;;12.47;10.43;;;11.80;86.10;;;;;;4992296;28;20552;-83
2024/04/02 13:01:41;;;;;;;12.33;11.07;;;11.80;86.10;;;;;;4992538;28;20182;-83
2024/04/02 13:04:06;;;;;;;11.77;10.87;;;11.80;85.90;;;;;;4992354;28;20216;-83
2024/04/02 13:06:35;;;;;;;13.83;12.40;;;11.70;85.90;;;;;;4994148;28;20208;-83
2024/04/02 13:09:03;;;;;;;14.43;12.20;;;11.70;85.60;;;;;;4993967;28;20170;-83
2024/04/02 13:11:30;;;;;;;14.30;12.70;;;11.50;85.50;;;;;;4992446;28;20197;-84
2024/04/02 13:13:56;;;;;;;16.70;11.90;;;11.50;86.00;;;;;;4993801;28;20221;-85
2024/04/02 13:16:30;;;;;;;17.33;11.20;;;11.40;86.90;;;;;;4994067;28;20558;-83
2024/04/02 13:19:00;;;;;;;10.10;9.40;;;11.30;88.20;;;;;;4994619;28;20645;-84
2024/04/02 13:21:26;;;;;;;8.47;7.80;;;9.90;86.90;;;;;;4994089;28;20237;-84